Shrivenham, United Kingdom
Current Conditions -  °F | °C
As of 7:23 PM on Thursday 27 Nov 2014 (Local Time) from EGVA Reporting Station
Overcast Overcast  
Wind Chill: 43°   Ceiling: 1200
Heat Index: 46°   Visibility: 6mi
Dew Point: 45°   Wind: 7mph
Humidity: 93%   Direction: 80°E
Pressure: 29.55"   Gusts: NA
Location:  51.6°N, 1.65°W
Report Text: EGVA 271923Z AUTO 08006KT 9999 BKN012 OVC065 08/07 A2955 RMK AO2 CIG 012V065 BKN V FEW $
Loading
Personal Weather Stations






























Interactive Weather Map New forecast layout! Learn more

10-Day Weather Forecast

Advertisements
Track Severe Weather on mobile